createdAt,value
2023-02-18T00:01:19.882Z,4.72
2023-02-18T00:03:53.984Z,4.75
2023-02-18T00:06:29.293Z,2.83
2023-02-18T00:09:05.053Z,7.15
2023-02-18T00:11:40.562Z,12.68
2023-02-18T00:14:15.401Z,11.68
2023-02-18T00:16:49.013Z,13.25
2023-02-18T00:19:22.606Z,6.25
2023-02-18T00:21:56.117Z,4.45
2023-02-18T00:24:29.662Z,7.97
2023-02-18T00:27:04.641Z,4.53
2023-02-18T00:29:38.397Z,3.03
2023-02-18T00:32:12.606Z,3.08
2023-02-18T00:34:46.183Z,4.10
2023-02-18T00:37:19.746Z,2.33
2023-02-18T00:39:53.414Z,4.68
2023-02-18T00:42:29.326Z,2.03
2023-02-18T00:45:02.906Z,2.03
2023-02-18T00:47:36.421Z,2.53
2023-02-18T00:50:11.673Z,2.28
2023-02-18T00:52:45.216Z,1.83
2023-02-18T00:55:19.116Z,2.28
2023-02-18T00:57:54.129Z,2.22
2023-02-18T01:00:27.865Z,1.92
2023-02-18T01:03:01.539Z,2.42
2023-02-18T01:05:35.209Z,1.38
2023-02-18T01:08:09.669Z,1.63
2023-02-18T01:10:47.028Z,1.10
2023-02-18T01:13:23.000Z,0.98
2023-02-18T01:15:56.874Z,2.22
2023-02-18T01:18:30.504Z,1.65
2023-02-18T01:21:05.269Z,1.00
2023-02-18T01:23:40.043Z,1.52
2023-02-18T01:26:14.125Z,1.52
2023-02-18T01:28:49.083Z,3.22
2023-02-18T01:31:22.724Z,3.00
2023-02-18T01:33:57.946Z,1.30
2023-02-18T01:36:31.446Z,1.92
2023-02-18T01:39:06.708Z,1.65
2023-02-18T01:41:40.245Z,1.48
2023-02-18T01:44:17.377Z,0.55
2023-02-18T01:46:52.798Z,1.13
2023-02-18T01:49:30.089Z,1.55
2023-02-18T01:52:06.729Z,3.80
2023-02-18T01:54:43.756Z,1.05
2023-02-18T01:57:21.665Z,1.83
2023-02-18T02:00:00.160Z,1.88
2023-02-18T02:02:41.674Z,0.95
2023-02-18T02:05:16.184Z,0.82
2023-02-18T02:07:52.774Z,0.90
2023-02-18T02:10:30.491Z,2.33
2023-02-18T02:13:09.694Z,1.00
2023-02-18T02:15:53.895Z,0.60
2023-02-18T02:18:40.039Z,1.17
2023-02-18T02:21:53.070Z,0.98
2023-02-18T02:24:59.302Z,0.70
2023-02-18T02:27:54.665Z,0.82
2023-02-18T02:30:52.823Z,1.08
2023-02-18T02:33:57.035Z,0.98
2023-02-18T02:36:38.308Z,1.08
2023-02-18T02:39:21.031Z,1.30
2023-02-18T02:42:05.067Z,1.13
2023-02-18T02:44:45.529Z,0.90
2023-02-18T02:47:28.984Z,1.35
2023-02-18T02:50:06.007Z,0.85
2023-02-18T02:52:45.354Z,2.05
2023-02-18T02:55:18.884Z,1.05
2023-02-18T02:57:56.306Z,0.70
2023-02-18T03:00:44.988Z,1.65
2023-02-18T03:03:36.039Z,2.70
2023-02-18T03:06:32.908Z,1.30
2023-02-18T03:09:15.751Z,1.38
2023-02-18T03:12:00.021Z,1.90
2023-02-18T03:14:45.379Z,1.42
2023-02-18T03:17:26.490Z,3.95
2023-02-18T03:20:09.406Z,1.20
2023-02-18T03:22:48.834Z,1.63
2023-02-18T03:25:25.564Z,0.88
2023-02-18T03:28:03.001Z,1.85
2023-02-18T03:30:42.907Z,0.65
2023-02-18T03:33:22.601Z,0.57
2023-02-18T03:35:58.289Z,1.17
2023-02-18T03:38:37.656Z,1.55
2023-02-18T03:41:12.659Z,1.73
2023-02-18T03:43:51.641Z,2.03
2023-02-18T03:46:25.296Z,1.55
2023-02-18T03:48:58.940Z,1.60
2023-02-18T03:51:32.784Z,1.38
2023-02-18T03:54:06.433Z,1.60
2023-02-18T03:56:42.669Z,2.20
2023-02-18T03:59:16.232Z,1.20
2023-02-18T04:01:49.728Z,1.60
2023-02-18T04:04:23.291Z,1.48
2023-02-18T04:06:57.132Z,1.48
2023-02-18T04:09:30.703Z,1.30
2023-02-18T04:12:05.958Z,0.93
2023-02-18T04:14:39.612Z,1.33
2023-02-18T04:17:13.268Z,1.02
2023-02-18T04:19:46.891Z,1.95
2023-02-18T04:22:21.643Z,1.20
2023-02-18T04:24:55.182Z,3.70
2023-02-18T04:27:30.108Z,3.30
2023-02-18T04:30:04.411Z,1.85
2023-02-18T04:32:38.561Z,0.90
2023-02-18T04:35:12.115Z,0.55
2023-02-18T04:37:45.839Z,1.27
2023-02-18T04:40:19.595Z,3.97
2023-02-18T04:42:54.505Z,1.42
2023-02-18T04:45:29.131Z,1.27
2023-02-18T04:48:02.707Z,1.45
2023-02-18T04:50:36.337Z,0.82
2023-02-18T04:53:10.116Z,4.22
2023-02-18T04:55:43.681Z,1.05
2023-02-18T04:58:18.858Z,1.33
2023-02-18T05:00:53.486Z,1.85
2023-02-18T05:03:27.705Z,1.55
2023-02-18T05:06:01.270Z,0.57
2023-02-18T05:08:35.027Z,1.15
2023-02-18T05:11:09.768Z,1.20
2023-02-18T05:13:44.788Z,1.33
2023-02-18T05:16:18.372Z,0.90
2023-02-18T05:18:52.086Z,0.80
2023-02-18T05:21:25.643Z,1.55
2023-02-18T05:23:59.294Z,2.60
2023-02-18T05:26:32.845Z,0.82
2023-02-18T05:29:08.082Z,1.77
2023-02-18T05:31:42.390Z,1.27
2023-02-18T05:34:16.037Z,1.10
2023-02-18T05:36:49.889Z,1.45
2023-02-18T05:39:23.596Z,0.68
2023-02-18T05:41:57.211Z,0.38
2023-02-18T05:44:32.629Z,1.77
2023-02-18T05:47:11.445Z,0.93
2023-02-18T05:49:45.439Z,3.40
2023-02-18T05:52:19.115Z,1.40
2023-02-18T05:54:52.811Z,0.30
2023-02-18T05:57:27.631Z,3.45
2023-02-18T06:00:02.643Z,0.55
2023-02-18T06:02:38.632Z,1.27
2023-02-18T06:05:12.479Z,1.33
2023-02-18T06:07:46.026Z,1.25
2023-02-18T06:10:19.855Z,2.85
2023-02-18T06:12:53.479Z,0.60
2023-02-18T06:15:28.441Z,1.60
2023-02-18T06:18:01.972Z,0.75
2023-02-18T06:20:35.608Z,1.30
2023-02-18T06:23:11.561Z,2.60
2023-02-18T06:25:45.532Z,2.78
2023-02-18T06:28:19.576Z,0.50
2023-02-18T06:30:54.625Z,3.17
2023-02-18T06:33:28.350Z,1.30
2023-02-18T06:36:03.756Z,1.60
2023-02-18T06:38:41.450Z,0.50
2023-02-18T06:41:16.577Z,0.93
2023-02-18T06:43:50.410Z,1.08
2023-02-18T06:46:25.638Z,3.13
2023-02-18T06:48:59.236Z,1.20
2023-02-18T06:51:32.763Z,1.27
2023-02-18T06:54:06.981Z,0.40
2023-02-18T06:56:40.744Z,0.50
2023-02-18T06:59:14.366Z,0.68
2023-02-18T07:01:49.332Z,0.45
2023-02-18T07:04:22.953Z,0.90
2023-02-18T07:06:56.499Z,29.75
2023-02-18T07:09:30.059Z,10.98
2023-02-18T07:12:03.918Z,1.77
2023-02-18T07:14:37.607Z,1.05
2023-02-18T07:17:13.003Z,14.68
2023-02-18T07:19:46.676Z,12.68
2023-02-18T07:22:20.311Z,0.95
2023-02-18T07:24:54.178Z,1.98
2023-02-18T07:27:27.988Z,24.70
2023-02-18T07:30:01.614Z,26.35
2023-02-18T07:32:36.626Z,9.35
2023-02-18T07:35:12.168Z,1.08
2023-02-18T07:37:54.285Z,2.30
2023-02-18T07:40:27.898Z,2.05
2023-02-18T07:43:01.578Z,3.50
2023-02-18T07:45:35.968Z,0.70
2023-02-18T07:48:11.246Z,7.70
2023-02-18T07:50:46.589Z,1.15
2023-02-18T07:53:20.175Z,1.48
2023-02-18T07:55:54.222Z,2.50
2023-02-18T07:58:30.301Z,3.58
2023-02-18T08:01:07.135Z,0.50
2023-02-18T08:03:42.618Z,2.15
2023-02-18T08:06:23.864Z,1.67
2023-02-18T08:08:57.536Z,1.55
2023-02-18T08:11:31.918Z,2.22
2023-02-18T08:14:05.536Z,2.50
2023-02-18T08:16:39.194Z,0.95
2023-02-18T08:19:15.273Z,1.98
2023-02-18T08:21:50.647Z,0.75
2023-02-18T08:24:27.508Z,11.82
2023-02-18T08:27:01.772Z,1.05
2023-02-18T08:29:35.406Z,0.55
2023-02-18T08:32:08.966Z,2.08
2023-02-18T08:34:43.959Z,0.75
2023-02-18T08:37:17.713Z,1.08
2023-02-18T08:39:51.331Z,2.83
2023-02-18T08:42:24.930Z,0.95
2023-02-18T08:44:58.846Z,1.02
2023-02-18T08:48:15.915Z,1.27
2023-02-18T08:50:29.341Z,1.60
2023-02-18T08:53:03.806Z,0.65
2023-02-18T08:55:38.491Z,1.67
2023-02-18T08:58:13.070Z,2.10
2023-02-18T09:00:46.939Z,1.00
2023-02-18T09:03:21.417Z,1.90
2023-02-18T09:05:57.567Z,2.60
2023-02-18T09:08:31.608Z,1.92
2023-02-18T09:11:06.714Z,1.90
2023-02-18T09:13:41.180Z,1.15
2023-02-18T09:16:18.328Z,2.75
2023-02-18T09:18:53.332Z,1.17
2023-02-18T09:21:29.048Z,0.95
2023-02-18T09:24:03.081Z,0.43
2023-02-18T09:26:37.178Z,1.20
2023-02-18T09:29:11.554Z,4.20
2023-02-18T09:31:46.979Z,0.77
2023-02-18T09:34:20.841Z,0.52
2023-02-18T09:36:56.088Z,5.20
2023-02-18T09:39:29.751Z,1.52
2023-02-18T09:42:05.583Z,0.68
2023-02-18T09:44:44.344Z,2.90
2023-02-18T09:47:21.866Z,9.70
2023-02-18T09:49:59.256Z,2.05
2023-02-18T09:52:38.366Z,1.30
2023-02-18T09:55:24.536Z,0.50
2023-02-18T09:58:01.032Z,2.67
2023-02-18T10:00:37.515Z,3.00
2023-02-18T10:03:16.408Z,0.40
2023-02-18T10:05:57.967Z,1.77
2023-02-18T10:08:36.697Z,3.58
2023-02-18T10:11:16.650Z,0.35
2023-02-18T10:13:50.599Z,3.33
2023-02-18T10:16:25.914Z,2.25
2023-02-18T10:19:01.496Z,2.22
2023-02-18T10:21:36.593Z,0.70
2023-02-18T10:24:25.290Z,1.23
2023-02-18T10:26:59.879Z,0.93
2023-02-18T10:29:33.730Z,2.38
2023-02-18T10:32:17.766Z,2.83
2023-02-18T10:34:55.493Z,1.33
2023-02-18T10:37:55.448Z,2.55
2023-02-18T10:40:37.947Z,1.08
2023-02-18T10:43:20.308Z,3.45
2023-02-18T10:46:01.215Z,4.05
2023-02-18T10:48:55.826Z,1.55
2023-02-18T10:51:33.314Z,2.45
2023-02-18T10:54:08.676Z,1.40
2023-02-18T10:56:49.011Z,1.33
2023-02-18T10:59:25.512Z,3.78
2023-02-18T11:02:01.242Z,2.83
2023-02-18T11:04:39.498Z,1.77
2023-02-18T11:07:16.663Z,3.28
2023-02-18T11:09:52.032Z,5.30
2023-02-18T11:12:30.189Z,1.80
2023-02-18T11:15:18.606Z,4.75
2023-02-18T11:17:54.410Z,1.40
2023-02-18T11:20:34.148Z,7.78
2023-02-18T11:23:20.963Z,3.97
2023-02-18T11:25:59.080Z,3.63
2023-02-18T11:28:44.014Z,1.83
2023-02-18T11:31:22.683Z,2.80
2023-02-18T11:33:58.694Z,1.70
2023-02-18T11:36:35.026Z,0.98
2023-02-18T11:39:19.425Z,1.38
2023-02-18T11:41:57.948Z,4.80
2023-02-18T11:44:36.720Z,2.70
2023-02-18T11:47:23.742Z,1.45
2023-02-18T11:50:21.986Z,1.85
2023-02-18T11:52:57.585Z,1.50
2023-02-18T11:55:32.921Z,3.85
2023-02-18T11:58:08.627Z,3.40
2023-02-18T12:00:45.922Z,3.47
2023-02-18T12:03:29.002Z,2.90
2023-02-18T12:06:06.414Z,2.28
2023-02-18T12:08:48.501Z,2.58
2023-02-18T12:11:28.476Z,1.88
2023-02-18T12:14:02.016Z,4.18
2023-02-18T12:16:45.437Z,4.43
2023-02-18T12:19:41.160Z,0.93
2023-02-18T12:22:21.744Z,3.40
2023-02-18T12:25:17.421Z,1.20
2023-02-18T12:28:01.228Z,1.42
2023-02-18T12:30:47.912Z,1.38
2023-02-18T12:33:31.995Z,3.25
2023-02-18T12:36:18.280Z,1.52
2023-02-18T12:38:59.119Z,2.85
2023-02-18T12:41:53.091Z,4.07
2023-02-18T12:44:45.310Z,1.58
2023-02-18T12:47:39.594Z,2.80
2023-02-18T12:50:32.326Z,1.95
2023-02-18T12:53:28.023Z,4.13
2023-02-18T12:56:16.847Z,3.20
2023-02-18T12:58:58.025Z,2.55
2023-02-18T13:01:49.204Z,4.50
2023-02-18T13:04:50.548Z,2.28
2023-02-18T13:07:48.311Z,3.40
2023-02-18T13:10:57.529Z,1.45
2023-02-18T13:13:34.892Z,4.97
2023-02-18T13:16:13.029Z,1.63
2023-02-18T13:18:54.540Z,2.05
2023-02-18T13:21:30.120Z,2.33
2023-02-18T13:24:11.173Z,2.25
2023-02-18T13:26:50.177Z,4.43
2023-02-18T13:29:30.148Z,3.30
2023-02-18T13:32:14.821Z,3.10
2023-02-18T13:34:54.196Z,6.97
2023-02-18T13:37:35.394Z,2.58
2023-02-18T13:40:20.988Z,1.42
2023-02-18T13:42:55.040Z,1.75
2023-02-18T13:45:30.992Z,3.42
2023-02-18T13:48:24.328Z,2.13
2023-02-18T13:51:05.268Z,1.25
2023-02-18T13:53:42.761Z,6.13
2023-02-18T13:56:28.397Z,1.52
2023-02-18T13:59:08.789Z,8.43
2023-02-18T14:01:45.184Z,25.42
2023-02-18T14:04:52.247Z,7.38
2023-02-18T14:07:45.412Z,5.72
2023-02-18T14:10:34.633Z,1.83
2023-02-18T14:13:44.518Z,2.10
2023-02-18T14:16:18.098Z,5.55
2023-02-18T14:19:02.729Z,3.00
2023-02-18T14:21:41.425Z,2.55
2023-02-18T14:24:15.142Z,3.55
2023-02-18T14:26:50.561Z,3.67
2023-02-18T14:29:31.225Z,1.92
2023-02-18T14:32:11.178Z,4.22
2023-02-18T14:35:14.381Z,1.20
2023-02-18T14:40:55.885Z,2.55
2023-02-18T14:43:42.700Z,2.45
2023-02-18T14:46:29.269Z,3.00
2023-02-18T14:49:18.257Z,4.57
2023-02-18T14:51:53.608Z,4.20
2023-02-18T14:54:28.657Z,3.40
2023-02-18T14:57:05.072Z,3.33
2023-02-18T14:59:41.545Z,5.57
2023-02-18T15:02:21.372Z,2.42
2023-02-18T15:04:55.704Z,2.55
2023-02-18T15:07:29.728Z,10.73
2023-02-18T15:10:03.537Z,11.10
2023-02-18T15:12:37.190Z,9.57
2023-02-18T15:15:17.076Z,6.55
2023-02-18T15:17:52.232Z,5.18
2023-02-18T15:20:26.096Z,5.22
2023-02-18T15:23:01.022Z,2.33
2023-02-18T15:25:37.431Z,1.80
2023-02-18T15:28:22.849Z,2.88
2023-02-18T15:30:58.530Z,3.20
2023-02-18T15:33:33.530Z,2.58
2023-02-18T15:36:12.512Z,1.35
2023-02-18T15:38:46.098Z,1.90
2023-02-18T15:41:22.767Z,1.77
2023-02-18T15:44:01.138Z,1.27
2023-02-18T15:46:34.914Z,1.42
2023-02-18T15:49:10.138Z,2.05
2023-02-18T15:51:44.814Z,1.60
2023-02-18T15:54:21.149Z,3.00
2023-02-18T15:56:56.846Z,0.70
2023-02-18T15:59:33.840Z,4.47
2023-02-18T16:02:22.078Z,10.82
2023-02-18T16:05:05.469Z,18.88
2023-02-18T16:07:52.233Z,18.00
2023-02-18T16:10:36.326Z,324.65
2023-02-18T16:13:14.844Z,46.25
2023-02-18T16:15:50.456Z,65.53
2023-02-18T16:18:30.916Z,33.00
2023-02-18T16:21:09.766Z,30.02
2023-02-18T16:23:45.505Z,44.53
2023-02-18T16:26:23.900Z,39.25
2023-02-18T16:29:04.016Z,43.70
2023-02-18T16:31:37.555Z,44.42
2023-02-18T16:34:11.147Z,87.90
2023-02-18T16:37:00.358Z,74.93
2023-02-18T16:39:35.999Z,35.72
2023-02-18T16:42:11.365Z,35.60
2023-02-18T16:44:44.853Z,38.85
2023-02-18T16:47:19.063Z,35.78
2023-02-18T16:49:52.891Z,96.28
2023-02-18T16:52:27.816Z,41.38
2023-02-18T16:55:01.305Z,70.80
2023-02-18T16:57:34.938Z,135.45
2023-02-18T17:00:09.833Z,105.90
2023-02-18T17:02:44.381Z,93.45
2023-02-18T17:05:27.247Z,121.60
2023-02-18T17:08:17.227Z,95.18
2023-02-18T17:10:52.274Z,73.00
2023-02-18T17:13:28.271Z,65.97
2023-02-18T17:16:01.838Z,73.07
2023-02-18T17:18:35.311Z,87.85
2023-02-18T17:21:13.016Z,110.38
2023-02-18T17:23:48.760Z,136.95
2023-02-18T17:26:25.649Z,57.63
2023-02-18T17:29:01.671Z,79.30
2023-02-18T17:31:37.970Z,85.47
2023-02-18T17:34:15.857Z,74.18
2023-02-18T17:36:49.377Z,55.42
2023-02-18T17:39:24.754Z,67.22
2023-02-18T17:41:58.469Z,54.17
2023-02-18T17:44:32.014Z,77.28
2023-02-18T17:47:05.643Z,45.55
2023-02-18T17:49:39.149Z,38.97
2023-02-18T17:52:29.094Z,49.00
2023-02-18T17:55:14.093Z,85.57
2023-02-18T17:57:47.703Z,37.85
2023-02-18T18:00:26.055Z,34.20
2023-02-18T18:03:00.449Z,52.83
2023-02-18T18:05:35.878Z,75.70
2023-02-18T18:08:10.222Z,62.95
2023-02-18T18:10:50.307Z,58.92
2023-02-18T18:13:26.325Z,50.50
2023-02-18T18:16:00.514Z,49.33
2023-02-18T18:18:34.041Z,43.05
2023-02-18T18:21:08.229Z,51.05
2023-02-18T18:23:41.815Z,76.28
2023-02-18T18:26:18.305Z,67.85
2023-02-18T18:28:51.837Z,53.17
2023-02-18T18:31:25.893Z,56.33
2023-02-18T18:33:59.626Z,71.45
2023-02-18T18:36:33.338Z,57.10
2023-02-18T18:39:07.200Z,50.95
2023-02-18T18:41:42.148Z,41.97
2023-02-18T18:44:15.618Z,51.88
2023-02-18T18:46:50.641Z,55.03
2023-02-18T18:49:24.157Z,55.05
2023-02-18T18:51:57.986Z,52.20
2023-02-18T18:54:31.464Z,45.83
2023-02-18T18:57:06.406Z,48.05
2023-02-18T18:59:39.913Z,40.83
2023-02-18T19:02:17.628Z,47.10
2023-02-18T19:04:51.122Z,39.13
2023-02-18T19:07:24.792Z,48.33
2023-02-18T19:09:58.374Z,63.85
2023-02-18T19:12:33.221Z,35.88
2023-02-18T19:15:07.122Z,32.55
2023-02-18T19:17:40.640Z,35.63
2023-02-18T19:20:15.990Z,31.75
2023-02-18T19:22:50.194Z,24.52
2023-02-18T19:25:24.177Z,42.55
2023-02-18T19:27:59.275Z,25.85
2023-02-18T19:30:34.866Z,33.08
2023-02-18T19:33:13.056Z,30.73
2023-02-18T19:35:46.767Z,25.73
2023-02-18T19:38:21.868Z,31.95
2023-02-18T19:40:56.745Z,23.33
2023-02-18T19:43:33.046Z,8.77
2023-02-18T19:46:10.378Z,4.75
2023-02-18T19:48:44.149Z,6.05
2023-02-18T19:51:17.673Z,5.38
2023-02-18T19:53:51.313Z,5.00
2023-02-18T19:56:25.175Z,5.60
2023-02-18T19:59:00.178Z,4.35
2023-02-18T20:01:33.710Z,4.80
2023-02-18T20:04:07.344Z,3.05
2023-02-18T20:06:40.988Z,3.55
2023-02-18T20:09:14.721Z,4.82
2023-02-18T20:11:48.917Z,2.80
2023-02-18T20:14:27.055Z,3.97
2023-02-18T20:17:00.745Z,2.70
2023-02-18T20:19:34.885Z,3.33
2023-02-18T20:22:10.301Z,3.03
2023-02-18T20:24:43.811Z,2.55
2023-02-18T20:27:17.390Z,2.28
2023-02-18T20:29:52.604Z,2.60
2023-02-18T20:32:26.220Z,2.58
2023-02-18T20:35:00.485Z,3.35
2023-02-18T20:37:34.366Z,3.53
2023-02-18T20:40:08.383Z,3.60
2023-02-18T20:42:42.168Z,2.45
2023-02-18T20:45:17.335Z,5.65
2023-02-18T20:47:50.840Z,3.72
2023-02-18T20:50:24.441Z,4.50
2023-02-18T20:52:58.092Z,5.60
2023-02-18T20:55:31.908Z,2.78
2023-02-18T20:58:05.695Z,4.68
2023-02-18T21:00:40.710Z,2.33
2023-02-18T21:03:14.219Z,2.40
2023-02-18T21:05:54.913Z,2.20
2023-02-18T21:08:29.068Z,3.00
2023-02-18T21:11:04.996Z,4.57
2023-02-18T21:13:38.933Z,2.60
2023-02-18T21:16:14.535Z,2.97
2023-02-18T21:18:48.517Z,4.80
2023-02-18T21:21:23.580Z,2.33
2023-02-18T21:23:57.151Z,2.55
2023-02-18T21:26:30.935Z,3.10
2023-02-18T21:29:08.017Z,3.40
2023-02-18T21:31:44.452Z,4.28
2023-02-18T21:34:19.072Z,1.80
2023-02-18T21:36:52.580Z,2.88
2023-02-18T21:39:26.108Z,3.33
2023-02-18T21:42:00.233Z,4.45
2023-02-18T21:44:42.288Z,4.40
2023-02-18T21:47:17.919Z,3.53
2023-02-18T21:49:51.532Z,2.25
2023-02-18T21:52:27.768Z,2.17
2023-02-18T21:55:01.314Z,1.50
2023-02-18T21:57:35.180Z,3.90
2023-02-18T22:00:19.641Z,2.67
2023-02-18T22:02:55.221Z,3.45
2023-02-18T22:05:30.227Z,3.03
2023-02-18T22:08:03.738Z,4.47
2023-02-18T22:10:40.005Z,1.70
2023-02-18T22:13:13.504Z,2.30
2023-02-18T22:15:54.835Z,3.58
2023-02-18T22:18:32.398Z,3.15
2023-02-18T22:21:10.346Z,3.83
2023-02-18T22:23:44.105Z,2.85
2023-02-18T22:26:17.677Z,1.88
2023-02-18T22:28:54.579Z,2.10
2023-02-18T22:31:30.205Z,1.90
2023-02-18T22:34:05.149Z,2.83
2023-02-18T22:36:39.093Z,1.65
2023-02-18T22:39:13.381Z,2.42
2023-02-18T22:41:46.872Z,1.70
2023-02-18T22:44:20.753Z,2.30
2023-02-18T22:46:58.284Z,2.22
2023-02-18T22:49:33.174Z,3.00
2023-02-18T22:52:06.818Z,1.95
2023-02-18T22:54:40.287Z,3.88
2023-02-18T22:57:13.800Z,2.92
2023-02-18T22:59:47.323Z,13.20
2023-02-18T23:02:21.297Z,4.35
2023-02-18T23:04:56.167Z,1.73
2023-02-18T23:07:29.665Z,2.25
2023-02-18T23:10:03.185Z,2.72
2023-02-18T23:12:36.711Z,8.70
2023-02-18T23:15:12.701Z,5.18
2023-02-18T23:17:50.459Z,8.60
2023-02-18T23:20:39.181Z,3.13
2023-02-18T23:23:12.668Z,1.33
2023-02-18T23:25:46.168Z,2.58
2023-02-18T23:28:19.641Z,1.30
2023-02-18T23:30:53.206Z,1.55
2023-02-18T23:33:26.714Z,1.27
2023-02-18T23:36:11.645Z,1.25
2023-02-18T23:38:49.249Z,1.27
2023-02-18T23:41:23.765Z,2.33
2023-02-18T23:43:57.952Z,1.75
2023-02-18T23:46:31.755Z,1.67
2023-02-18T23:49:06.246Z,3.50
2023-02-18T23:51:41.204Z,4.05
2023-02-18T23:54:14.910Z,3.83
2023-02-18T23:56:48.879Z,2.15
2023-02-18T23:59:22.451Z,1.15
